Time;durP1;ratioP1;P1;durP2;ratioP2;P2;SDS_P1;SDS_P2;PMS_P1;PMS_P2;Temp;Humidity;BMP_temperature;BMP_pressure;BME280_temperature;BME280_humidity;BME280_pressure;Samples;Min_cycle;Max_cycle;Signal;HPM_P1;HPM_P2
2022/03/18 00:02:17;;;;;;;141.55;37.90;;;2.80;99.90;;;;;;4862936;29;20054;-70
2022/03/18 00:04:43;;;;;;;174.57;48.22;;;2.80;99.90;;;;;;4863598;29;20038;-71
2022/03/18 00:07:11;;;;;;;167.15;45.53;;;2.80;99.90;;;;;;4863964;29;20044;-71
2022/03/18 00:09:37;;;;;;;151.45;41.45;;;2.80;99.90;;;;;;4863023;29;20070;-70
2022/03/18 00:12:03;;;;;;;106.80;31.10;;;2.80;99.90;;;;;;4863195;29;20061;-72
2022/03/18 00:14:28;;;;;;;81.07;25.70;;;2.80;99.90;;;;;;4865419;29;20030;-71
2022/03/18 00:16:54;;;;;;;82.00;25.50;;;2.80;99.90;;;;;;4848489;29;20078;-72
2022/03/18 00:19:19;;;;;;;76.38;25.55;;;2.70;99.90;;;;;;4866776;29;20050;-70
2022/03/18 00:21:45;;;;;;;57.10;18.67;;;2.80;99.90;;;;;;4867854;29;20041;-70
2022/03/18 00:24:11;;;;;;;52.30;17.65;;;2.70;99.90;;;;;;4866641;29;20071;-72
2022/03/18 00:26:36;;;;;;;48.22;17.00;;;2.70;99.90;;;;;;4866205;29;20067;-72
2022/03/18 00:29:02;;;;;;;44.33;17.02;;;2.70;99.90;;;;;;4851476;29;20049;-71
2022/03/18 00:31:29;;;;;;;41.03;14.73;;;2.70;99.90;;;;;;4863247;29;20034;-71
2022/03/18 00:33:55;;;;;;;41.55;13.88;;;2.60;99.90;;;;;;4857903;29;20030;-72
2022/03/18 00:36:22;;;;;;;36.88;12.15;;;2.60;99.90;;;;;;4865925;29;20063;-71
2022/03/18 00:38:48;;;;;;;31.92;12.68;;;2.60;99.90;;;;;;4865909;29;20042;-71
2022/03/18 00:41:14;;;;;;;28.50;10.60;;;2.60;99.90;;;;;;4867241;29;20022;-72
2022/03/18 00:43:41;;;;;;;23.85;10.95;;;2.50;99.90;;;;;;4866165;29;20022;-72
2022/03/18 00:46:06;;;;;;;21.50;10.10;;;2.60;99.90;;;;;;4865914;29;20046;-71
2022/03/18 00:54:03;;;;;;;22.83;8.32;;;2.50;99.90;;;;;;4865865;29;20048;-71
2022/03/18 00:56:29;;;;;;;17.20;8.60;;;2.50;99.90;;;;;;4865578;29;20065;-72
2022/03/18 00:58:55;;;;;;;18.67;8.38;;;2.50;99.90;;;;;;4866234;29;20053;-71
2022/03/18 01:01:20;;;;;;;15.52;7.95;;;2.50;99.90;;;;;;4865676;29;20041;-72
2022/03/18 01:03:46;;;;;;;17.50;8.48;;;2.40;99.90;;;;;;4865687;29;20045;-72
2022/03/18 01:06:11;;;;;;;17.70;8.43;;;2.40;99.90;;;;;;4865932;29;20046;-70
2022/03/18 01:08:37;;;;;;;24.13;8.45;;;2.40;99.90;;;;;;4866282;29;20067;-72
2022/03/18 01:11:03;;;;;;;20.17;8.07;;;2.40;99.90;;;;;;4865211;29;20022;-71
2022/03/18 01:13:29;;;;;;;19.25;8.38;;;2.40;99.90;;;;;;4865366;29;20052;-71
2022/03/18 01:15:55;;;;;;;17.13;7.80;;;2.30;99.90;;;;;;4865899;29;20038;-72
2022/03/18 01:18:21;;;;;;;19.25;8.60;;;2.30;99.90;;;;;;4866741;29;20054;-72
2022/03/18 01:20:46;;;;;;;15.48;8.10;;;2.30;99.90;;;;;;4846974;29;20035;-72
2022/03/18 01:23:12;;;;;;;16.20;7.88;;;2.30;99.90;;;;;;4847173;29;20152;-70
2022/03/18 01:25:38;;;;;;;15.40;8.07;;;2.30;99.90;;;;;;4846716;29;20042;-71
2022/03/18 01:28:04;;;;;;;21.55;8.20;;;2.30;99.90;;;;;;4846980;29;20042;-71
2022/03/18 01:30:30;;;;;;;19.02;7.82;;;2.30;99.90;;;;;;4846496;29;20067;-72
2022/03/18 01:32:59;;;;;;;19.13;8.50;;;2.30;99.90;;;;;;4847582;29;20043;-71
2022/03/18 01:35:24;;;;;;;17.70;8.15;;;2.20;99.90;;;;;;4848795;29;20038;-71
2022/03/18 01:37:50;;;;;;;19.10;8.43;;;2.20;99.90;;;;;;4865548;29;20040;-72
2022/03/18 01:40:16;;;;;;;15.00;7.68;;;2.20;99.90;;;;;;4866232;29;20041;-73
2022/03/18 01:42:41;;;;;;;16.35;7.45;;;2.30;99.90;;;;;;4866347;29;20071;-71
2022/03/18 01:45:08;;;;;;;19.27;7.97;;;2.20;99.90;;;;;;4881587;29;20037;-71
2022/03/18 01:47:34;;;;;;;18.38;8.50;;;2.20;99.90;;;;;;4866766;29;20046;-72
2022/03/18 01:50:00;;;;;;;16.02;7.70;;;2.20;99.90;;;;;;4866758;29;20042;-71
2022/03/18 01:52:27;;;;;;;21.08;8.52;;;2.20;99.90;;;;;;4865530;29;20125;-70
2022/03/18 01:54:53;;;;;;;16.25;7.03;;;2.20;99.90;;;;;;4861285;29;20042;-70
2022/03/18 01:57:26;;;;;;;17.20;7.75;;;2.20;99.90;;;;;;4846476;29;20038;-71
2022/03/18 01:59:52;;;;;;;21.33;7.97;;;2.20;99.90;;;;;;4846992;29;20078;-70
2022/03/18 02:02:18;;;;;;;16.13;7.55;;;2.10;99.90;;;;;;4847199;29;20042;-70
2022/03/18 02:04:44;;;;;;;18.67;8.60;;;2.10;99.90;;;;;;4846890;29;20103;-73
2022/03/18 02:07:11;;;;;;;14.05;7.43;;;2.10;99.90;;;;;;4848586;29;20053;-70
2022/03/18 02:09:37;;;;;;;15.82;8.80;;;2.20;99.90;;;;;;4849274;29;20058;-72
2022/03/18 02:12:05;;;;;;;16.23;7.57;;;2.10;99.90;;;;;;4848313;29;20057;-71
2022/03/18 02:14:45;;;;;;;16.83;8.50;;;2.10;99.90;;;;;;4861433;29;20050;-71
2022/03/18 02:17:13;;;;;;;16.73;7.43;;;2.10;99.90;;;;;;4881985;29;20087;-71
2022/03/18 02:19:40;;;;;;;15.10;7.55;;;2.10;99.90;;;;;;4866681;29;20038;-72
2022/03/18 02:22:26;;;;;;;14.45;7.15;;;2.10;99.90;;;;;;4881745;29;20045;-71
2022/03/18 02:24:54;;;;;;;17.92;8.18;;;2.10;99.90;;;;;;4882437;29;20041;-70
2022/03/18 02:27:20;;;;;;;16.58;7.95;;;2.10;99.90;;;;;;4866692;29;20057;-72
2022/03/18 02:29:47;;;;;;;18.70;8.25;;;2.10;99.90;;;;;;4882050;29;20057;-71
2022/03/18 02:32:16;;;;;;;21.50;8.30;;;2.00;99.90;;;;;;4864075;29;20126;-72
2022/03/18 02:34:42;;;;;;;12.63;7.50;;;2.10;99.90;;;;;;4882402;29;20076;-72
2022/03/18 02:37:08;;;;;;;19.30;7.90;;;2.10;99.90;;;;;;4861912;29;20033;-70
2022/03/18 02:39:34;;;;;;;14.57;8.02;;;2.00;99.90;;;;;;4863764;29;20111;-72
2022/03/18 02:42:00;;;;;;;14.75;7.45;;;2.00;99.90;;;;;;4863952;29;20034;-70
2022/03/18 02:44:26;;;;;;;16.98;8.57;;;2.00;99.90;;;;;;4863938;29;20052;-71
2022/03/18 02:46:52;;;;;;;15.10;7.85;;;2.00;99.90;;;;;;4864078;29;20038;-73
2022/03/18 02:49:19;;;;;;;18.00;8.20;;;2.00;99.90;;;;;;4863823;29;20102;-72
2022/03/18 02:51:45;;;;;;;18.88;8.18;;;2.00;99.90;;;;;;4864348;29;20046;-71
2022/03/18 02:54:12;;;;;;;18.52;7.95;;;2.00;99.90;;;;;;4863977;29;20106;-71
2022/03/18 02:56:41;;;;;;;16.27;7.90;;;2.00;99.90;;;;;;4863860;29;20079;-71
2022/03/18 02:59:07;;;;;;;20.95;8.48;;;2.00;99.90;;;;;;4863126;29;20046;-71
2022/03/18 03:01:32;;;;;;;15.75;7.90;;;2.00;99.90;;;;;;4863601;29;20068;-71
2022/03/18 03:03:59;;;;;;;15.43;7.93;;;2.00;99.90;;;;;;4863820;29;20131;-72
2022/03/18 03:09:10;;;;;;;19.88;8.68;;;2.00;99.90;;;;;;4863763;29;20065;-72
2022/03/18 03:11:36;;;;;;;19.55;8.98;;;2.00;99.90;;;;;;4863393;29;20041;-71
2022/03/18 03:14:02;;;;;;;18.27;9.05;;;1.90;99.90;;;;;;4862973;29;20048;-71
2022/03/18 03:16:28;;;;;;;17.27;8.43;;;2.00;99.90;;;;;;4864394;29;20046;-72
2022/03/18 03:18:53;;;;;;;16.30;8.70;;;1.90;99.90;;;;;;4863367;29;20089;-72
2022/03/18 03:21:19;;;;;;;17.15;8.52;;;1.90;99.90;;;;;;4863540;29;20045;-70
2022/03/18 03:23:45;;;;;;;21.15;9.38;;;1.90;99.90;;;;;;4863206;29;20417;-71
2022/03/18 03:26:12;;;;;;;17.40;8.80;;;1.90;99.90;;;;;;4863681;29;20041;-71
2022/03/18 03:28:38;;;;;;;18.75;9.43;;;2.00;99.90;;;;;;4863632;29;20030;-71
2022/03/18 03:31:04;;;;;;;18.05;9.40;;;2.00;99.90;;;;;;4864127;29;20477;-71
2022/03/18 03:33:31;;;;;;;15.27;8.55;;;2.00;99.90;;;;;;4878389;29;20030;-71
2022/03/18 03:35:56;;;;;;;15.77;8.38;;;1.90;99.90;;;;;;4864094;29;20034;-72
2022/03/18 03:38:23;;;;;;;19.35;8.73;;;2.00;99.90;;;;;;4863388;29;20065;-70
2022/03/18 03:40:52;;;;;;;17.25;8.18;;;1.90;99.90;;;;;;4863717;29;20052;-71
2022/03/18 03:43:18;;;;;;;15.82;8.13;;;1.90;99.90;;;;;;4863894;29;20062;-70
2022/03/18 03:45:44;;;;;;;18.58;8.82;;;1.90;99.90;;;;;;4862698;29;20081;-71
2022/03/18 03:48:10;;;;;;;20.20;8.90;;;1.90;99.90;;;;;;4863555;29;20042;-72
2022/03/18 03:50:37;;;;;;;14.55;8.32;;;1.90;99.90;;;;;;4863718;29;20052;-72
2022/03/18 03:53:03;;;;;;;17.10;8.43;;;1.90;99.90;;;;;;4863696;29;20032;-71
2022/03/18 03:55:29;;;;;;;13.27;7.15;;;1.90;99.90;;;;;;4862738;29;20045;-71
2022/03/18 03:57:55;;;;;;;15.90;7.88;;;1.80;99.90;;;;;;4863588;29;20113;-70
2022/03/18 04:00:21;;;;;;;15.02;8.15;;;1.80;99.90;;;;;;4862814;29;20046;-72
2022/03/18 04:02:47;;;;;;;14.10;8.02;;;1.80;99.90;;;;;;4863388;29;20049;-72
2022/03/18 04:05:13;;;;;;;18.73;7.82;;;1.80;99.90;;;;;;4862685;29;20116;-71
2022/03/18 04:07:41;;;;;;;15.20;8.25;;;1.80;99.90;;;;;;4862392;29;20046;-71
2022/03/18 04:10:10;;;;;;;17.45;8.63;;;1.80;99.90;;;;;;4863250;29;20114;-70
2022/03/18 04:12:35;;;;;;;14.77;7.68;;;1.70;99.90;;;;;;4862116;29;20049;-71
2022/03/18 04:15:02;;;;;;;15.10;7.78;;;1.70;99.90;;;;;;4862973;29;20046;-72
2022/03/18 04:17:37;;;;;;;16.73;7.75;;;1.70;99.90;;;;;;4863299;29;20046;-73
2022/03/18 04:20:05;;;;;;;16.90;7.15;;;1.70;99.90;;;;;;4863887;29;20038;-71
2022/03/18 04:22:31;;;;;;;15.68;7.72;;;1.70;99.90;;;;;;4863898;29;20032;-71
2022/03/18 04:24:57;;;;;;;18.95;8.90;;;1.70;99.90;;;;;;4863521;29;20038;-71
2022/03/18 04:27:23;;;;;;;17.23;7.65;;;1.70;99.90;;;;;;4862798;29;20081;-71
2022/03/18 04:29:48;;;;;;;14.10;8.20;;;1.70;99.90;;;;;;4847331;29;20098;-71
2022/03/18 04:32:14;;;;;;;17.45;9.18;;;1.70;99.90;;;;;;4880699;29;20065;-70
2022/03/18 04:34:40;;;;;;;16.35;8.57;;;1.60;99.90;;;;;;4879879;29;20134;-73
2022/03/18 04:37:05;;;;;;;20.38;8.52;;;1.70;99.90;;;;;;4865668;29;20041;-72
2022/03/18 04:39:34;;;;;;;19.90;9.15;;;1.60;99.90;;;;;;4865148;29;20049;-71
2022/03/18 04:42:00;;;;;;;17.73;9.77;;;1.60;99.90;;;;;;4864717;29;20053;-70
2022/03/18 04:44:25;;;;;;;16.48;8.27;;;1.60;99.90;;;;;;4864833;29;20069;-72
2022/03/18 04:46:51;;;;;;;17.13;8.55;;;1.60;99.90;;;;;;4864725;29;20053;-71
2022/03/18 04:49:17;;;;;;;13.40;7.93;;;1.60;99.90;;;;;;4865061;29;20069;-71
2022/03/18 04:51:42;;;;;;;15.77;8.25;;;1.60;99.90;;;;;;4880565;29;20109;-70
2022/03/18 04:54:08;;;;;;;13.50;7.18;;;1.60;99.90;;;;;;4880006;29;20037;-70
2022/03/18 04:59:21;;;;;;;12.98;8.25;;;1.60;99.90;;;;;;4864110;29;20056;-71
2022/03/18 05:01:47;;;;;;;15.63;8.07;;;1.60;99.90;;;;;;4883107;29;20101;-71
2022/03/18 05:04:13;;;;;;;17.35;7.65;;;1.60;99.90;;;;;;4865386;29;20069;-71
2022/03/18 05:06:39;;;;;;;14.05;7.65;;;1.60;99.90;;;;;;4865470;29;20070;-71
2022/03/18 05:09:05;;;;;;;15.75;8.48;;;1.60;99.90;;;;;;4849794;29;20046;-71
2022/03/18 05:11:31;;;;;;;12.32;7.70;;;1.60;99.90;;;;;;4866139;29;20029;-71
2022/03/18 05:13:58;;;;;;;17.48;9.15;;;1.60;99.90;;;;;;4866349;29;20034;-71
2022/03/18 05:16:27;;;;;;;17.98;8.27;;;1.50;99.90;;;;;;4865785;29;20065;-71
2022/03/18 05:18:53;;;;;;;17.10;8.50;;;1.50;99.90;;;;;;4880922;29;20045;-71
2022/03/18 05:21:19;;;;;;;14.40;8.25;;;1.50;99.90;;;;;;4849682;29;20046;-71
2022/03/18 05:23:46;;;;;;;16.92;8.32;;;1.50;99.90;;;;;;4865530;29;20046;-70
2022/03/18 05:26:12;;;;;;;18.48;9.63;;;1.50;99.90;;;;;;4865037;29;20041;-72
2022/03/18 05:28:38;;;;;;;16.85;8.93;;;1.50;99.90;;;;;;4865697;29;20045;-71
2022/03/18 05:31:04;;;;;;;16.45;9.18;;;1.50;99.90;;;;;;4865156;29;20042;-71
2022/03/18 05:33:29;;;;;;;15.73;9.35;;;1.50;99.90;;;;;;4866061;29;20034;-72
2022/03/18 05:35:55;;;;;;;16.50;9.38;;;1.50;99.90;;;;;;4864850;29;20059;-71
2022/03/18 05:38:20;;;;;;;11.35;8.00;;;1.40;99.90;;;;;;4865138;29;20037;-71
2022/03/18 05:40:46;;;;;;;15.38;8.02;;;1.40;99.90;;;;;;4861828;29;20029;-72
2022/03/18 05:43:13;;;;;;;14.43;7.30;;;1.40;99.90;;;;;;4845638;29;20070;-72
2022/03/18 05:45:39;;;;;;;14.20;7.30;;;1.30;99.90;;;;;;4844944;29;20060;-70
2022/03/18 05:48:06;;;;;;;21.10;9.43;;;1.40;99.90;;;;;;4848634;29;20057;-70
2022/03/18 05:50:33;;;;;;;13.40;7.60;;;1.40;99.90;;;;;;4863255;29;20042;-71
2022/03/18 05:52:59;;;;;;;14.55;8.05;;;1.30;99.90;;;;;;4848681;29;20086;-71
2022/03/18 05:55:26;;;;;;;17.30;8.38;;;1.30;99.90;;;;;;4863751;29;20038;-70
2022/03/18 05:57:53;;;;;;;17.25;9.20;;;1.40;99.90;;;;;;4849181;29;20077;-70
2022/03/18 06:00:19;;;;;;;16.40;8.48;;;1.40;99.90;;;;;;4863451;29;20042;-71
2022/03/18 06:02:45;;;;;;;16.17;9.15;;;1.40;99.90;;;;;;4863860;29;20054;-72
2022/03/18 06:05:11;;;;;;;14.95;9.38;;;1.40;99.90;;;;;;4863729;29;20042;-71
2022/03/18 06:07:37;;;;;;;17.30;8.65;;;1.40;99.90;;;;;;4833865;29;20034;-72
2022/03/18 06:12:48;;;;;;;13.77;9.07;;;1.40;99.90;;;;;;4863348;29;20056;-70
2022/03/18 06:15:14;;;;;;;17.30;8.68;;;1.50;99.90;;;;;;4848669;29;20074;-72
2022/03/18 06:17:39;;;;;;;14.82;9.40;;;1.50;99.90;;;;;;4864245;29;20030;-71
2022/03/18 06:20:06;;;;;;;18.60;9.57;;;1.50;99.90;;;;;;4865624;29;20094;-72
2022/03/18 06:22:31;;;;;;;15.10;9.25;;;1.50;99.90;;;;;;4849046;29;20085;-70
2022/03/18 06:24:57;;;;;;;17.90;9.55;;;1.50;99.90;;;;;;4865241;29;20428;-71
2022/03/18 06:27:23;;;;;;;19.40;9.13;;;1.60;99.90;;;;;;4864013;29;20094;-72
2022/03/18 06:29:48;;;;;;;17.17;8.50;;;1.60;99.90;;;;;;4861808;29;20046;-70
2022/03/18 06:32:14;;;;;;;14.13;8.38;;;1.60;99.90;;;;;;4864533;29;20045;-72
2022/03/18 06:34:40;;;;;;;12.07;7.53;;;1.60;99.90;;;;;;4865361;29;20089;-70
2022/03/18 06:37:05;;;;;;;15.25;7.63;;;1.70;99.90;;;;;;4865095;29;20042;-70
2022/03/18 06:39:31;;;;;;;12.15;7.80;;;1.70;99.90;;;;;;4865151;29;20038;-71
2022/03/18 06:41:57;;;;;;;14.85;7.50;;;1.70;99.90;;;;;;4849316;29;20046;-71
2022/03/18 06:44:23;;;;;;;18.00;9.25;;;1.70;99.90;;;;;;4861127;29;20073;-73
2022/03/18 06:46:49;;;;;;;17.60;8.20;;;1.80;99.90;;;;;;4864564;29;20038;-71
2022/03/18 06:49:15;;;;;;;13.82;7.28;;;1.80;99.90;;;;;;4849039;29;20038;-71
2022/03/18 06:51:41;;;;;;;13.88;7.47;;;1.80;99.90;;;;;;4865048;29;20076;-71
2022/03/18 06:54:06;;;;;;;17.10;7.95;;;1.90;99.90;;;;;;4865120;29;20041;-70
2022/03/18 06:56:33;;;;;;;12.65;6.78;;;1.90;99.90;;;;;;4864847;29;20033;-71
2022/03/18 06:59:00;;;;;;;10.93;7.28;;;2.00;99.90;;;;;;4864301;29;20028;-71
2022/03/18 07:01:32;;;;;;;14.60;7.95;;;2.00;99.90;;;;;;4864018;29;20042;-70
2022/03/18 07:03:58;;;;;;;14.32;8.35;;;2.10;99.90;;;;;;4864228;29;20049;-71
2022/03/18 07:06:26;;;;;;;16.92;9.95;;;2.20;99.90;;;;;;4863348;29;20026;-70
2022/03/18 07:08:52;;;;;;;17.60;10.48;;;2.20;99.90;;;;;;4864567;29;20069;-70
2022/03/18 07:11:19;;;;;;;21.67;12.70;;;2.30;99.90;;;;;;4864202;29;20045;-70
2022/03/18 07:13:45;;;;;;;22.23;12.73;;;2.50;99.90;;;;;;4858623;29;20106;-71
2022/03/18 07:18:55;;;;;;;20.08;13.32;;;2.70;99.90;;;;;;4856304;29;20554;-71
2022/03/18 07:21:21;;;;;;;22.05;12.75;;;2.70;99.90;;;;;;4863092;29;20045;-71
2022/03/18 07:23:47;;;;;;;28.63;14.93;;;2.90;99.90;;;;;;4862940;29;20065;-71
2022/03/18 07:26:13;;;;;;;22.52;14.10;;;3.00;99.90;;;;;;4863763;29;20042;-70
2022/03/18 07:28:39;;;;;;;28.88;15.70;;;3.10;99.90;;;;;;4864087;29;20097;-72
2022/03/18 07:31:04;;;;;;;25.30;15.40;;;3.20;99.90;;;;;;4848589;29;20042;-71
2022/03/18 07:33:30;;;;;;;27.98;14.05;;;3.40;99.90;;;;;;4863338;29;20045;-73
2022/03/18 07:35:56;;;;;;;29.05;14.02;;;3.50;99.90;;;;;;4863892;29;20077;-72
2022/03/18 07:38:22;;;;;;;29.15;14.98;;;3.60;99.90;;;;;;4864050;29;20044;-72
2022/03/18 07:40:48;;;;;;;28.38;13.15;;;3.80;99.90;;;;;;4864160;29;20046;-73
2022/03/18 07:43:13;;;;;;;31.20;14.75;;;3.90;99.90;;;;;;4879138;29;20069;-74
2022/03/18 07:45:40;;;;;;;26.10;14.25;;;4.00;99.90;;;;;;4863652;29;20057;-73
2022/03/18 07:48:08;;;;;;;28.25;13.40;;;4.20;99.90;;;;;;4876372;29;20040;-73
2022/03/18 07:50:36;;;;;;;25.45;13.57;;;4.30;99.90;;;;;;4863901;29;20170;-73
2022/03/18 07:53:07;;;;;;;26.13;12.98;;;4.40;99.90;;;;;;4864550;29;20116;-73
2022/03/18 07:55:35;;;;;;;27.90;14.10;;;4.60;99.90;;;;;;4863538;29;20037;-74
2022/03/18 07:58:00;;;;;;;24.83;13.75;;;4.80;99.90;;;;;;4863828;29;20072;-73
2022/03/18 08:00:26;;;;;;;22.77;13.23;;;5.00;99.90;;;;;;4864456;29;20046;-74
2022/03/18 08:02:53;;;;;;;24.65;13.55;;;5.10;99.90;;;;;;4879443;29;20067;-75
2022/03/18 08:05:20;;;;;;;24.75;14.02;;;5.30;99.90;;;;;;4864404;29;20074;-74
2022/03/18 08:07:48;;;;;;;21.65;12.65;;;5.50;99.90;;;;;;4864166;29;20049;-74
2022/03/18 08:10:15;;;;;;;23.88;12.98;;;5.70;99.90;;;;;;4864319;29;20063;-72
2022/03/18 08:12:42;;;;;;;21.63;12.40;;;5.90;99.90;;;;;;4864477;29;20073;-73
2022/03/18 08:15:13;;;;;;;25.58;14.32;;;6.10;99.90;;;;;;4864081;29;20042;-73
2022/03/18 08:17:40;;;;;;;26.73;12.73;;;6.30;99.90;;;;;;4864449;29;20038;-74
2022/03/18 08:20:08;;;;;;;23.73;14.13;;;6.60;99.90;;;;;;4864197;29;20041;-74
2022/03/18 08:22:35;;;;;;;20.05;12.23;;;6.80;99.90;;;;;;4877029;29;20077;-73
2022/03/18 08:25:02;;;;;;;22.38;13.70;;;6.90;99.90;;;;;;4849416;29;20046;-74
2022/03/18 08:27:28;;;;;;;28.38;13.70;;;7.10;99.90;;;;;;4865131;29;20042;-74
2022/03/18 08:29:57;;;;;;;22.50;13.50;;;7.30;99.90;;;;;;4864025;29;20042;-72
2022/03/18 08:32:27;;;;;;;20.08;12.27;;;7.50;99.90;;;;;;4864371;29;20056;-73
2022/03/18 08:34:54;;;;;;;24.33;14.35;;;7.70;99.90;;;;;;4850062;29;20050;-74
2022/03/18 08:37:56;;;;;;;24.65;14.38;;;7.80;99.90;;;;;;4868745;29;20038;-74
2022/03/18 08:40:06;;;;;;;28.55;15.27;;;8.00;99.90;;;;;;4868111;29;20057;-72
2022/03/18 08:42:32;;;;;;;31.48;15.45;;;8.20;99.90;;;;;;4868798;29;20041;-72
2022/03/18 08:44:58;;;;;;;22.85;13.85;;;8.40;99.90;;;;;;4868779;29;20068;-74
2022/03/18 08:47:24;;;;;;;24.63;13.98;;;8.60;99.90;;;;;;4868894;29;20026;-72
2022/03/18 08:49:50;;;;;;;25.10;12.48;;;8.90;99.90;;;;;;4868655;29;20041;-72
2022/03/18 08:52:16;;;;;;;28.08;13.43;;;9.10;99.90;;;;;;4861524;29;20042;-72
2022/03/18 08:54:42;;;;;;;24.60;13.77;;;9.30;99.90;;;;;;4886883;29;20045;-75
2022/03/18 08:57:08;;;;;;;20.65;12.82;;;9.50;99.90;;;;;;4870885;29;20053;-73
2022/03/18 08:59:34;;;;;;;27.30;14.13;;;9.60;99.90;;;;;;4886035;29;20049;-73
2022/03/18 09:01:59;;;;;;;26.38;12.68;;;9.90;99.90;;;;;;4886516;29;20045;-74
2022/03/18 09:04:25;;;;;;;25.25;13.15;;;10.20;99.90;;;;;;4885389;29;20051;-73
2022/03/18 09:06:51;;;;;;;20.42;13.10;;;10.30;99.90;;;;;;4887116;29;20044;-75
2022/03/18 09:09:20;;;;;;;25.15;13.18;;;10.40;99.90;;;;;;4886229;29;20025;-74
2022/03/18 09:11:45;;;;;;;24.48;13.63;;;10.50;99.90;;;;;;4886158;29;20045;-74
2022/03/18 09:14:12;;;;;;;25.35;13.38;;;10.70;99.90;;;;;;4885815;29;20045;-73
2022/03/18 09:16:43;;;;;;;24.73;12.82;;;10.80;99.90;;;;;;4886001;29;20068;-77
2022/03/18 09:19:09;;;;;;;24.40;13.05;;;11.00;99.90;;;;;;4885740;29;20056;-74
2022/03/18 09:21:41;;;;;;;22.98;12.13;;;11.20;99.90;;;;;;4886425;29;20042;-76
2022/03/18 09:27:19;;;;;;;20.08;12.65;;;11.30;99.90;;;;;;4886962;29;20073;-79
2022/03/18 09:29:45;;;;;;;19.88;11.98;;;11.50;99.90;;;;;;4871518;29;20030;-76
2022/03/18 09:32:11;;;;;;;24.08;12.00;;;11.60;99.90;;;;;;4886533;29;20115;-78
2022/03/18 09:34:37;;;;;;;22.27;12.02;;;11.80;99.90;;;;;;4887081;29;20042;-78
2022/03/18 09:37:06;;;;;;;24.25;11.88;;;11.90;99.90;;;;;;4871799;29;20058;-77
2022/03/18 09:39:32;;;;;;;20.48;11.45;;;12.00;99.90;;;;;;4886508;29;20049;-79
2022/03/18 09:42:00;;;;;;;21.05;12.00;;;12.00;99.90;;;;;;4886710;29;20037;-77
2022/03/18 10:02:34;;;;;;;22.58;11.98;;;12.60;99.90;;;;;;4946137;23;20083;-76
2022/03/18 10:05:03;;;;;;;28.08;12.00;;;12.60;99.90;;;;;;4834170;29;20125;-77
2022/03/18 10:07:29;;;;;;;23.90;12.02;;;12.70;99.90;;;;;;4864766;29;20056;-76
2022/03/18 10:10:15;;;;;;;21.50;12.10;;;12.80;99.90;;;;;;4849691;29;20047;-76
2022/03/18 10:12:44;;;;;;;18.23;11.13;;;12.90;99.90;;;;;;4849393;29;20041;-77
2022/03/18 10:15:19;;;;;;;25.85;11.88;;;12.90;99.90;;;;;;4848821;29;20042;-78
2022/03/18 10:17:57;;;;;;;22.25;11.57;;;12.90;99.90;;;;;;4849830;29;20030;-77
2022/03/18 10:20:26;;;;;;;24.95;12.20;;;13.00;99.90;;;;;;4864266;29;20034;-77
2022/03/18 15:28:42;;;;;;;12.98;4.95;;;16.20;71.00;;;;;;3635185;23;19920;-73
2022/03/18 16:07:24;;;;;;;14.05;4.90;;;14.60;92.90;;;;;;4280087;23;20038;-71
2022/03/18 16:09:49;;;;;;;10.18;5.07;;;14.60;93.00;;;;;;4865152;29;20049;-71
2022/03/18 16:12:18;;;;;;;14.30;4.72;;;14.50;94.10;;;;;;4866123;29;20053;-73
2022/03/18 16:14:43;;;;;;;13.10;5.32;;;14.50;95.20;;;;;;4866322;29;20049;-72
2022/03/18 16:17:09;;;;;;;10.68;5.05;;;14.40;95.50;;;;;;4866914;29;20034;-72
2022/03/18 16:19:36;;;;;;;15.55;5.50;;;14.40;95.20;;;;;;4866482;29;20033;-70
2022/03/18 17:00:55;;;;;;;20.23;8.25;;;13.70;99.90;;;;;;4021776;23;20057;-70
2022/03/18 17:03:21;;;;;;;17.65;7.75;;;13.70;99.90;;;;;;4887152;29;20097;-73
2022/03/18 17:05:50;;;;;;;24.38;8.68;;;13.50;99.90;;;;;;4886165;29;20074;-72
2022/03/18 17:08:16;;;;;;;20.38;8.13;;;13.40;99.90;;;;;;4886509;29;20065;-71
2022/03/18 17:10:43;;;;;;;19.40;8.13;;;13.30;99.90;;;;;;4886119;29;20041;-70
2022/03/18 17:13:09;;;;;;;20.75;8.13;;;13.10;99.90;;;;;;4890441;29;20054;-71
2022/03/18 17:15:37;;;;;;;17.73;7.70;;;13.00;99.90;;;;;;4882770;29;20045;-72
2022/03/18 17:18:05;;;;;;;23.45;9.25;;;13.00;99.90;;;;;;4872831;29;20042;-70
2022/03/18 17:20:31;;;;;;;43.78;20.58;;;12.80;99.90;;;;;;4867460;29;20042;-72
2022/03/18 17:22:57;;;;;;;54.22;24.98;;;12.70;99.90;;;;;;4867446;29;20038;-71
2022/03/18 17:25:23;;;;;;;51.35;26.60;;;12.60;99.90;;;;;;4867820;29;20050;-71
2022/03/18 17:27:51;;;;;;;26.67;12.75;;;12.60;99.90;;;;;;4876786;29;20040;-71
2022/03/18 17:30:17;;;;;;;22.92;10.10;;;12.50;99.90;;;;;;4885882;29;20037;-71
2022/03/18 17:32:45;;;;;;;23.08;9.40;;;12.50;99.90;;;;;;4901219;29;20037;-70
2022/03/18 17:35:11;;;;;;;19.83;6.78;;;12.40;99.90;;;;;;4885500;29;20050;-70
2022/03/18 17:37:37;;;;;;;24.20;7.30;;;12.30;99.90;;;;;;4886228;29;20094;-72
2022/03/18 17:40:03;;;;;;;17.88;7.75;;;12.30;99.90;;;;;;4885847;29;20049;-73
2022/03/18 17:42:29;;;;;;;16.63;6.72;;;12.20;99.90;;;;;;4885425;29;20049;-70
2022/03/18 17:44:54;;;;;;;19.30;6.05;;;12.20;99.90;;;;;;4901527;29;20029;-71
2022/03/18 17:47:20;;;;;;;17.83;6.35;;;12.10;99.90;;;;;;4870148;29;20037;-70
2022/03/18 17:49:48;;;;;;;20.40;6.68;;;12.00;99.90;;;;;;4885273;29;20048;-72
2022/03/18 17:52:13;;;;;;;17.25;5.72;;;11.90;99.90;;;;;;4867709;29;20041;-70
2022/03/18 17:54:39;;;;;;;20.85;5.40;;;11.90;99.90;;;;;;4850990;29;20048;-73
2022/03/18 17:57:05;;;;;;;17.30;5.63;;;11.80;99.90;;;;;;4866295;29;20071;-72
2022/03/18 17:59:30;;;;;;;20.55;5.50;;;11.70;99.90;;;;;;4851106;29;20102;-72
2022/03/18 18:01:56;;;;;;;19.60;6.00;;;11.70;99.90;;;;;;4866545;29;20050;-71
2022/03/18 18:04:21;;;;;;;21.55;5.88;;;11.60;99.90;;;;;;4866278;29;20140;-70
2022/03/18 18:06:48;;;;;;;13.55;4.70;;;11.50;99.90;;;;;;4866246;29;20038;-72
2022/03/18 18:09:13;;;;;;;18.20;5.13;;;11.40;99.90;;;;;;4865856;29;20049;-73
2022/03/18 18:11:42;;;;;;;19.23;5.38;;;11.40;99.90;;;;;;4850670;29;20109;-73
2022/03/18 18:14:11;;;;;;;20.38;5.45;;;11.30;99.90;;;;;;4866235;29;20044;-73
2022/03/18 18:16:38;;;;;;;24.58;6.07;;;11.20;99.90;;;;;;4850173;29;20034;-70
2022/03/18 18:21:58;;;;;;;20.15;6.13;;;11.10;99.90;;;;;;4866203;29;20036;-70
2022/03/18 18:24:26;;;;;;;21.77;6.35;;;11.00;99.90;;;;;;4867034;29;20090;-70
2022/03/18 18:26:53;;;;;;;22.98;6.97;;;10.90;99.90;;;;;;4866766;29;20030;-70
2022/03/18 18:29:19;;;;;;;19.88;5.88;;;10.80;99.90;;;;;;4867140;29;20059;-70
2022/03/18 18:31:45;;;;;;;23.45;5.35;;;10.80;99.90;;;;;;4866757;29;20033;-71
2022/03/18 18:34:11;;;;;;;21.77;5.43;;;10.70;99.90;;;;;;4897142;29;20060;-71
2022/03/18 18:36:38;;;;;;;19.67;5.40;;;10.60;99.90;;;;;;4866812;29;20041;-71
2022/03/18 18:39:05;;;;;;;20.35;5.57;;;10.60;99.90;;;;;;4881945;29;20042;-72
2022/03/18 18:41:33;;;;;;;21.13;5.45;;;10.60;99.90;;;;;;4867216;29;20034;-70
2022/03/18 18:43:59;;;;;;;24.45;4.85;;;10.50;99.90;;;;;;4873813;29;20042;-69
2022/03/18 18:46:24;;;;;;;23.30;5.18;;;10.40;99.90;;;;;;4866699;29;20022;-71
2022/03/18 18:48:51;;;;;;;20.30;4.75;;;10.40;99.90;;;;;;4866521;29;20038;-70
2022/03/18 18:51:19;;;;;;;21.73;5.00;;;10.30;99.90;;;;;;4866672;29;20042;-72
2022/03/18 18:53:45;;;;;;;19.88;4.65;;;10.30;99.90;;;;;;4866062;29;20052;-72
2022/03/18 18:56:12;;;;;;;20.60;4.93;;;10.30;99.90;;;;;;4863084;29;20038;-70
2022/03/18 18:58:38;;;;;;;22.42;4.80;;;10.20;99.90;;;;;;4865468;29;20046;-72
2022/03/18 19:01:04;;;;;;;18.58;4.88;;;10.10;99.90;;;;;;4865349;29;20050;-70
2022/03/18 19:03:29;;;;;;;17.02;4.40;;;10.10;99.90;;;;;;4866551;29;20061;-71
2022/03/18 19:05:55;;;;;;;17.88;4.70;;;10.00;99.90;;;;;;4866362;29;20061;-71
2022/03/18 19:08:22;;;;;;;15.23;4.20;;;10.00;99.90;;;;;;4869123;29;20042;-71
2022/03/18 19:10:48;;;;;;;22.00;4.72;;;9.90;99.90;;;;;;4881029;29;20045;-70
2022/03/18 19:13:14;;;;;;;20.35;4.55;;;9.90;99.90;;;;;;4866427;29;20048;-71
2022/03/18 19:15:41;;;;;;;18.55;4.70;;;9.80;99.90;;;;;;4865745;29;20046;-70
2022/03/18 19:18:06;;;;;;;25.65;5.03;;;9.80;99.90;;;;;;4865296;29;20090;-73
2022/03/18 19:20:34;;;;;;;17.45;4.32;;;9.70;99.90;;;;;;4865272;29;20037;-71
2022/03/18 19:23:02;;;;;;;19.83;4.53;;;9.70;99.90;;;;;;4865749;29;20049;-71
2022/03/18 19:25:29;;;;;;;17.92;4.72;;;9.70;99.90;;;;;;4865569;29;20045;-71
2022/03/18 19:27:55;;;;;;;19.33;5.40;;;9.60;99.90;;;;;;4867782;29;20034;-70
2022/03/18 19:30:23;;;;;;;16.63;4.90;;;9.60;99.90;;;;;;4884623;29;20046;-73
2022/03/18 19:32:49;;;;;;;19.73;4.90;;;9.50;99.90;;;;;;4884628;29;20058;-71
2022/03/18 19:35:19;;;;;;;21.05;5.45;;;9.40;99.90;;;;;;4884534;29;20057;-70
2022/03/18 19:37:45;;;;;;;21.95;5.65;;;9.50;99.90;;;;;;4884507;29;20077;-71
2022/03/18 19:40:12;;;;;;;22.45;5.45;;;9.40;99.90;;;;;;4884225;29;20025;-71